Weather at Gaziveren Heliport

Public forecast

Using degrees Celsius for public forecast. Weather courtesy of forecast.io.

Closest aviation weather report (METAR) to Gaziveren Heliport

Closest report is Nicosia (Lefkoşa) Ercan International Airport, 29.9 nm (55.4 km) E.

2024/05/25 11:50 (retrieved 15 minutes ago)

LCEN 251150Z 20010KT 9999 SCT025 29/10 Q1007 NOSIG

Closest aviation forecast (TAF) to Gaziveren Heliport

Closest forecast is Nicosia (Lefkoşa) Ercan International Airport, 29.9 nm (55.4 km) E.

2024/05/25 12:00 (retrieved 5 minutes ago)

TAF LCEN 251040Z 2512/2612 16018KT 9999 SCT025 PROB30 TEMPO 2512/2516 BKN025 BECMG 2516/2519 29015KT